Catàleg de serveis del Meteocat
Campanya meteocatpedra

Dades de l'estació automàtica Lleida - la Femosa

?
?
Resum diari 22:00 TU
Dades diàries de l'estació meteorològica
Temperatura mitjana 8.7 °C
Temperatura màxima 14.3 °C 15:49 TU
Temperatura mínima 5.4 °C 3:02 TU
Humitat relativa mitjana 81%
Precipitació acumulada 3.6 mm
Ratxa màxima del vent (10 m) 28.1 km/h - 272º 16:17 TU
Irradiació solar global 7.3 MJ/m2

El tram horari està expressat en Temps Universal (TU). Cal sumar una hora en horari d'hivern i dues en horari d'estiu per passar a l'hora oficial.

Lleida - la Femosa

Metadades estació meteorol´gica
Municipi Lleida
Comarca Segrià
Altitud 170 m
Data alta 21.08.2018
Estat actual Operativa
Dades de període
Període
TU
TM
°C
TX
°C
TN
°C
HRM
%
PPT
mm
VVM (10 m)
km/h
DVM (10 m)
graus
VVX (10 m)
km/h
RS
W/m2
00:00 - 00:30 7.9 8.1 7.6 79 0.0 8.3 174 12.6 0
00:30 - 01:00 7.6 8.0 7.3 79 0.0 7.2 191 11.9 0
01:00 - 01:30 7.4 7.7 7.2 81 0.0 6.1 236 9.4 0
01:30 - 02:00 7.7 7.8 7.6 80 0.0 4.3 234 6.8 0
02:00 - 02:30 7.0 7.9 5.9 84 0.0 0.7 183 3.2 0
02:30 - 03:00 6.4 7.0 5.4 87 0.0 4.7 122 7.9 0
03:00 - 03:30 5.9 6.4 5.4 89 0.0 4.3 85 6.8 0
03:30 - 04:00 6.3 6.6 5.8 88 0.0 4.3 59 7.2 0
04:00 - 04:30 5.8 5.9 5.7 91 0.0 5.4 27 7.6 0
04:30 - 05:00 5.7 5.8 5.6 90 0.0 6.1 29 9.4 0
05:00 - 05:30 5.6 5.7 5.6 91 0.0 5.8 29 8.3 0
05:30 - 06:00 5.7 5.7 5.6 93 0.3 5.4 37 9.0 0
06:00 - 06:30 5.7 5.8 5.6 95 0.6 5.0 23 7.6 0
06:30 - 07:00 5.9 6.1 5.7 96 0.6 7.2 45 11.2 0
07:00 - 07:30 6.1 6.2 6.1 95 0.5 7.6 60 11.9 6
07:30 - 08:00 6.1 6.2 6.1 96 0.6 6.8 64 13.7 17
08:00 - 08:30 6.4 6.5 6.2 97 0.5 2.9 243 6.1 35
08:30 - 09:00 6.5 6.8 6.4 97 0.3 2.2 298 5.0 31
09:00 - 09:30 6.9 7.0 6.8 97 0.2 2.5 275 5.4 42
09:30 - 10:00 7.1 7.2 7.0 97 0.0 5.0 186 10.4 49
10:00 - 10:30 7.3 7.6 7.1 97 0.0 6.8 235 11.9 91
10:30 - 11:00 7.7 8.1 7.4 97 0.0 6.5 243 11.2 162
11:00 - 11:30 8.7 9.7 8.1 95 0.0 8.6 224 13.0 380
11:30 - 12:00 9.9 10.3 9.6 90 0.0 11.2 233 20.5 532
12:00 - 12:30 10.8 11.4 10.0 87 0.0 8.3 237 15.8 497
12:30 - 13:00 11.4 11.7 11.0 83 0.0 7.2 263 15.8 446
13:00 - 13:30 11.9 12.7 11.4 79 0.0 8.3 252 17.3 463
13:30 - 14:00 12.3 12.8 11.8 79 0.0 9.4 228 16.9 365
14:00 - 14:30 12.9 13.1 12.6 76 0.0 9.7 212 16.6 345
14:30 - 15:00 13.3 13.6 13.0 75 0.0 10.4 236 17.6 274
15:00 - 15:30 13.7 14.0 13.5 75 0.0 7.9 232 13.3 189
15:30 - 16:00 14.1 14.3 14.0 64 0.0 11.9 269 27.4 117
16:00 - 16:30 13.6 14.1 13.0 52 0.0 15.5 272 28.1 39
16:30 - 17:00 12.2 12.9 11.3 60 0.0 11.9 231 20.5 1
17:00 - 17:30 11.6 11.8 11.2 62 0.0 15.1 240 27.4 0
17:30 - 18:00 11.2 11.8 10.3 59 0.0 12.2 232 25.6 0
18:00 - 18:30 10.1 10.5 9.6 64 0.0 14.4 199 22.0 0
18:30 - 19:00 9.6 9.9 9.0 66 0.0 10.4 230 18.4 0
19:00 - 19:30 9.7 9.9 9.6 64 0.0 10.1 257 18.0 0
19:30 - 20:00 8.8 9.6 8.2 69 0.0 10.4 221 16.9 0
20:00 - 20:30 8.9 10.0 8.3 68 0.0 13.3 215 18.7 0
20:30 - 21:00 8.5 9.6 8.0 70 0.0 13.3 208 17.3 0
21:00 - 21:30 8.4 8.7 8.2 71 0.0 10.8 222 16.2 0
21:30 - 22:00 7.7 8.1 7.0 76 0.0 8.3 227 12.2 0
22:00 - 22:30 7.2 7.4 6.9 79 0.0 4.7 161 12.2 0
22:30 - 23:00 6.9 7.7 6.3 81 0.0 4.3 57 7.6 0

Les dades en taronja només han passat un control de qualitat automàtic. Resta pendent la seva validació definitiva.